Time;durP1;ratioP1;P1;durP2;ratioP2;P2;SDS_P1;SDS_P2;PMS_P1;PMS_P2;Temp;Humidity;BMP_temperature;BMP_pressure;BME280_temperature;BME280_humidity;BME280_pressure;Samples;Min_cycle;Max_cycle;Signal;HPM_P1;HPM_P2
2023/05/19 00:01:58;;;;;;;;;;;;;;;17.57;57.78;100502.28;5077225;28;1086;-53
2023/05/19 00:04:24;;;;;;;;;;;;;;;16.77;58.70;100502.22;5089577;28;1058;-53
2023/05/19 00:06:50;;;;;;;;;;;;;;;16.44;58.57;100495.47;5082374;28;1037;-54
2023/05/19 00:09:16;;;;;;;;;;;;;;;16.31;58.00;100509.78;5085269;28;1014;-55
2023/05/19 00:11:42;;;;;;;;;;;;;;;16.15;57.72;100506.25;5082751;28;1181;-52
2023/05/19 00:14:08;;;;;;;;;;;;;;;16.06;57.25;100512.31;5084304;28;1104;-53
2023/05/19 00:16:33;;;;;;;;;;;;;;;16.01;56.89;100514.22;5076538;28;1154;-49
2023/05/19 00:19:00;;;;;;;;;;;;;;;16.24;58.44;100504.56;5082455;28;1909;-54
2023/05/19 00:21:27;;;;;;;;;;;;;;;17.45;58.19;100506.22;5077625;28;1074;-53
2023/05/19 00:23:52;;;;;;;;;;;;;;;16.80;58.70;100519.22;5076922;28;1062;-54
2023/05/19 00:26:18;;;;;;;;;;;;;;;16.42;58.44;100520.47;5076552;28;1102;-54
2023/05/19 00:28:53;;;;;;;;;;;;;;;16.22;57.91;100515.00;5076521;28;1058;-55
2023/05/19 00:31:19;;;;;;;;;;;;;;;16.14;57.44;100518.31;5064976;28;1124;-54
2023/05/19 00:33:45;;;;;;;;;;;;;;;16.04;57.34;100516.41;5077070;28;1015;-53
2023/05/19 00:36:10;;;;;;;;;;;;;;;15.92;57.04;100511.19;5076755;28;1110;-55
2023/05/19 00:38:36;;;;;;;;;;;;;;;16.80;59.01;100525.53;5076655;28;1902;-54
2023/05/19 00:41:02;;;;;;;;;;;;;;;17.36;57.89;100518.97;5058803;28;1063;-56
2023/05/19 00:43:29;;;;;;;;;;;;;;;16.68;58.42;100525.84;5084327;28;1074;-53
2023/05/19 00:45:54;;;;;;;;;;;;;;;16.38;58.09;100516.63;5076483;28;1110;-55
2023/05/19 00:48:20;;;;;;;;;;;;;;;16.21;57.52;100521.59;5076545;28;1102;-56
2023/05/19 00:50:46;;;;;;;;;;;;;;;16.09;57.48;100519.16;5058470;28;1122;-56
2023/05/19 00:53:12;;;;;;;;;;;;;;;15.97;57.10;100516.69;5038517;28;1142;-55
2023/05/19 00:55:39;;;;;;;;;;;;;;;15.87;57.30;100524.94;5071776;28;864;-55
2023/05/19 00:58:05;;;;;;;;;;;;;;;17.03;58.62;100534.25;5052178;28;1967;-56
2023/05/19 01:00:30;;;;;;;;;;;;;;;16.96;58.34;100529.06;5058210;28;1103;-54
2023/05/19 01:02:56;;;;;;;;;;;;;;;16.41;58.64;100521.56;5076339;28;1177;-56
2023/05/19 01:05:21;;;;;;;;;;;;;;;16.28;57.98;100533.09;5058343;28;2278;-55
2023/05/19 01:07:52;;;;;;;;;;;;;;;16.12;57.63;100528.72;5084116;28;1161;-55
2023/05/19 01:10:18;;;;;;;;;;;;;;;15.91;57.34;100528.78;5039500;28;1246;-56
2023/05/19 01:12:44;;;;;;;;;;;;;;;16.12;58.31;100534.22;5071037;28;1035;-58
2023/05/19 01:15:10;;;;;;;;;;;;;;;17.37;57.98;100537.06;5058699;28;1154;-56
2023/05/19 01:17:41;;;;;;;;;;;;;;;16.79;58.59;100543.13;5058249;28;1510;-56
2023/05/19 01:20:15;;;;;;;;;;;;;;;16.41;58.49;100546.25;5060475;28;1909;-55
2023/05/19 01:23:00;;;;;;;;;;;;;;;16.23;57.92;100542.16;5045234;28;1317;-56
2023/05/19 01:25:37;;;;;;;;;;;;;;;16.13;57.23;100547.69;5076221;28;984;-56
2023/05/19 01:28:21;;;;;;;;;;;;;;;15.98;57.07;100551.25;5057954;28;1142;-56
2023/05/19 01:30:54;;;;;;;;;;;;;;;15.86;56.86;100543.28;5058396;28;1102;-56
2023/05/19 01:33:20;;;;;;;;;;;;;;;15.79;56.86;100547.38;5066923;28;1086;-56
2023/05/19 01:35:45;;;;;;;;;;;;;;;16.85;58.36;100552.97;5058328;28;1054;-55
2023/05/19 01:38:11;;;;;;;;;;;;;;;17.70;57.19;100544.84;5041690;28;1906;-55
2023/05/19 01:40:38;;;;;;;;;;;;;;;16.81;58.12;100540.09;5058714;28;1158;-54
2023/05/19 01:43:04;;;;;;;;;;;;;;;16.48;58.03;100547.88;5076694;28;1118;-53
2023/05/19 01:45:31;;;;;;;;;;;;;;;16.26;57.89;100543.53;5059577;28;1306;-56
2023/05/19 01:47:57;;;;;;;;;;;;;;;16.13;57.40;100542.19;5057767;28;1572;-56
2023/05/19 01:50:22;;;;;;;;;;;;;;;16.03;57.08;100545.78;5057780;28;1091;-53
2023/05/19 01:52:48;;;;;;;;;;;;;;;16.08;57.71;100543.00;5076026;28;1035;-56
2023/05/19 01:55:14;;;;;;;;;;;;;;;17.33;57.82;100551.66;5076959;28;1139;-56
2023/05/19 01:57:42;;;;;;;;;;;;;;;16.80;58.28;100550.22;5066514;28;1136;-56
2023/05/19 02:00:14;;;;;;;;;;;;;;;16.41;58.16;100551.75;5057975;28;1918;-55
2023/05/19 02:03:00;;;;;;;;;;;;;;;16.25;57.58;100561.09;5057945;28;1274;-55
2023/05/19 02:05:37;;;;;;;;;;;;;;;16.08;57.26;100559.47;5077749;28;1178;-56
2023/05/19 02:08:06;;;;;;;;;;;;;;;15.94;56.97;100569.34;5065797;28;1643;-55
2023/05/19 02:10:31;;;;;;;;;;;;;;;15.90;57.13;100573.72;5079707;28;1199;-52
2023/05/19 02:12:57;;;;;;;;;;;;;;;17.08;58.24;100568.03;5061615;28;1026;-56
2023/05/19 02:15:23;;;;;;;;;;;;;;;17.03;58.04;100576.28;5061471;28;1343;-56
2023/05/19 02:17:50;;;;;;;;;;;;;;;16.52;58.27;100573.66;5061519;28;1905;-56
2023/05/19 02:20:16;;;;;;;;;;;;;;;16.33;57.50;100577.00;5069897;28;1135;-55
2023/05/19 02:22:41;;;;;;;;;;;;;;;16.15;57.36;100583.06;5064726;28;1121;-54
2023/05/19 02:25:07;;;;;;;;;;;;;;;16.05;56.88;100590.19;5079097;28;1027;-53
2023/05/19 02:27:33;;;;;;;;;;;;;;;15.94;56.89;100585.81;5061113;28;1097;-55
2023/05/19 02:30:02;;;;;;;;;;;;;;;16.33;58.08;100590.72;5078884;28;1090;-56
2023/05/19 02:32:27;;;;;;;;;;;;;;;17.42;57.37;100597.50;5066153;28;1206;-54
2023/05/19 02:34:55;;;;;;;;;;;;;;;16.63;58.19;100589.00;5061323;28;1091;-54
2023/05/19 02:37:22;;;;;;;;;;;;;;;16.40;57.67;100596.75;5060930;28;1067;-55
2023/05/19 02:39:48;;;;;;;;;;;;;;;16.19;57.32;100592.38;5060943;28;1922;-55
2023/05/19 02:42:16;;;;;;;;;;;;;;;16.03;56.91;100592.41;5079353;28;1027;-55
2023/05/19 02:44:42;;;;;;;;;;;;;;;16.60;58.33;100593.13;5089271;28;1134;-54
2023/05/19 02:47:07;;;;;;;;;;;;;;;17.57;56.98;100595.78;5062803;28;1231;-55
2023/05/19 02:49:35;;;;;;;;;;;;;;;16.70;57.96;100597.78;5079026;28;1194;-51
2023/05/19 02:52:02;;;;;;;;;;;;;;;16.45;57.72;100604.13;5060158;28;1171;-52
2023/05/19 02:54:28;;;;;;;;;;;;;;;16.22;57.53;100611.84;5060571;28;1142;-55
2023/05/19 02:56:54;;;;;;;;;;;;;;;16.12;57.10;100608.28;5085517;28;1018;-55
2023/05/19 02:59:19;;;;;;;;;;;;;;;16.02;56.63;100606.34;5078526;28;1917;-56
2023/05/19 03:01:46;;;;;;;;;;;;;;;16.98;57.98;100601.00;5060075;28;1111;-57
2023/05/19 03:04:12;;;;;;;;;;;;;;;17.14;57.49;100604.53;5078503;28;1170;-57
2023/05/19 03:06:38;;;;;;;;;;;;;;;16.58;57.98;100609.06;5078438;28;1170;-57
2023/05/19 03:09:04;;;;;;;;;;;;;;;16.30;57.61;100591.28;5060526;28;1363;-56
2023/05/19 03:11:30;;;;;;;;;;;;;;;16.21;57.22;100604.72;5077875;28;1158;-57
2023/05/19 03:13:55;;;;;;;;;;;;;;;16.10;56.99;100594.03;5090385;28;1148;-57
2023/05/19 03:16:21;;;;;;;;;;;;;;;15.98;56.77;100594.31;5079448;28;1106;-54
2023/05/19 03:18:46;;;;;;;;;;;;;;;15.93;56.80;100592.38;5060182;28;1914;-54
2023/05/19 03:21:12;;;;;;;;;;;;;;;17.10;57.75;100593.28;5085063;28;1011;-54
2023/05/19 03:23:37;;;;;;;;;;;;;;;16.87;57.80;100599.38;5078122;28;1045;-57
2023/05/19 03:26:03;;;;;;;;;;;;;;;16.43;58.13;100596.19;5060016;28;1303;-57
2023/05/19 03:28:29;;;;;;;;;;;;;;;16.30;57.43;100601.41;5077820;28;1055;-57
2023/05/19 03:30:55;;;;;;;;;;;;;;;16.15;57.10;100610.50;5046818;28;1198;-57
2023/05/19 03:33:26;;;;;;;;;;;;;;;15.99;57.02;100607.75;5059306;28;1209;-54
2023/05/19 03:35:52;;;;;;;;;;;;;;;17.13;57.72;100618.56;5054635;28;1071;-55
2023/05/19 03:38:18;;;;;;;;;;;;;;;17.04;57.52;100616.38;5051881;28;1906;-56
2023/05/19 03:40:55;;;;;;;;;;;;;;;16.55;57.62;100625.25;5059791;28;1344;-54
2023/05/19 03:43:21;;;;;;;;;;;;;;;16.37;57.68;100635.72;5059856;28;1174;-57
2023/05/19 03:45:52;;;;;;;;;;;;;;;16.18;57.28;100631.88;5060971;28;1351;-57
2023/05/19 03:48:43;;;;;;;;;;;;;;;16.06;56.92;100635.72;5075248;28;1178;-57
2023/05/19 03:51:33;;;;;;;;;;;;;;;16.08;57.40;100628.03;5076111;28;1347;-57
2023/05/19 03:54:14;;;;;;;;;;;;;;;17.49;57.10;100632.09;5059663;28;1261;-56
2023/05/19 03:56:40;;;;;;;;;;;;;;;16.79;58.06;100646.63;5061123;28;2055;-56
2023/05/19 03:59:06;;;;;;;;;;;;;;;16.50;58.03;100644.50;5042841;28;1901;-57
2023/05/19 04:01:32;;;;;;;;;;;;;;;16.29;57.64;100644.50;5059520;28;1288;-57
2023/05/19 04:03:57;;;;;;;;;;;;;;;16.17;57.43;100644.78;5076706;28;1181;-57
2023/05/19 04:06:23;;;;;;;;;;;;;;;16.03;57.31;100647.25;5058760;28;1078;-58
2023/05/19 04:08:48;;;;;;;;;;;;;;;15.98;56.85;100644.50;5059932;28;1217;-58
2023/05/19 04:11:14;;;;;;;;;;;;;;;16.59;58.18;100649.16;5058624;28;1055;-58
2023/05/19 04:13:39;;;;;;;;;;;;;;;17.62;56.75;100642.50;5077086;28;1242;-59
2023/05/19 04:16:05;;;;;;;;;;;;;;;16.81;57.98;100645.25;5059299;28;1607;-57
2023/05/19 04:18:31;;;;;;;;;;;;;;;16.50;57.97;100645.31;5076942;28;1965;-58
2023/05/19 04:20:56;;;;;;;;;;;;;;;16.31;57.58;100646.97;5076952;28;1121;-58
2023/05/19 04:23:22;;;;;;;;;;;;;;;16.19;57.17;100644.50;5058334;28;2092;-59
2023/05/19 04:25:48;;;;;;;;;;;;;;;16.13;56.76;100648.34;5058996;28;1339;-60
2023/05/19 04:28:14;;;;;;;;;;;;;;;16.32;57.73;100654.09;5041542;28;1242;-60
2023/05/19 04:30:41;;;;;;;;;;;;;;;17.56;56.99;100655.44;5058746;28;1118;-58
2023/05/19 04:33:08;;;;;;;;;;;;;;;17.05;57.54;100661.16;5076832;28;1032;-57
2023/05/19 04:35:33;;;;;;;;;;;;;;;16.60;57.78;100663.69;5058619;28;1280;-58
2023/05/19 04:38:00;;;;;;;;;;;;;;;16.40;57.75;100672.78;5041950;28;1977;-58
2023/05/19 04:40:29;;;;;;;;;;;;;;;16.28;57.29;100667.53;5049393;28;1114;-59
2023/05/19 04:42:56;;;;;;;;;;;;;;;16.24;56.97;100671.94;5058518;28;1229;-58
2023/05/19 04:45:22;;;;;;;;;;;;;;;16.03;56.73;100674.69;5065616;28;1410;-58
2023/05/19 04:47:51;;;;;;;;;;;;;;;15.95;56.71;100661.50;5042488;28;1407;-56
2023/05/19 04:50:17;;;;;;;;;;;;;;;15.89;56.55;100679.88;5058024;28;1075;-57
2023/05/19 04:52:44;;;;;;;;;;;;;;;16.93;57.98;100673.28;5058420;28;2352;-57
2023/05/19 04:55:10;;;;;;;;;;;;;;;17.30;57.17;100667.66;5058500;28;1137;-58
2023/05/19 04:57:36;;;;;;;;;;;;;;;16.61;58.06;100676.31;5052384;28;1131;-56
2023/05/19 05:00:06;;;;;;;;;;;;;;;16.49;57.50;100673.84;5055065;28;1901;-58
2023/05/19 05:02:36;;;;;;;;;;;;;;;17.07;56.51;100676.25;5058610;28;1335;-55
2023/05/19 05:05:03;;;;;;;;;;;;;;;16.43;55.06;100664.78;5057899;28;1356;-56
2023/05/19 05:07:28;;;;;;;;;;;;;;;16.33;53.15;100667.56;5058401;28;1232;-57
2023/05/19 05:09:54;;;;;;;;;;;;;;;16.17;51.83;100674.13;5056312;28;1371;-58
2023/05/19 05:12:20;;;;;;;;;;;;;;;16.10;51.40;100665.34;5058504;28;1270;-59
2023/05/19 05:14:47;;;;;;;;;;;;;;;15.98;50.82;100666.44;5058320;28;1305;-59
2023/05/19 05:17:12;;;;;;;;;;;;;;;15.96;49.96;100665.06;5076334;28;1177;-57
2023/05/19 05:19:38;;;;;;;;;;;;;;;16.88;53.68;100661.44;5057856;28;1914;-59
2023/05/19 05:22:05;;;;;;;;;;;;;;;16.41;52.65;100669.75;5047293;28;1134;-59
2023/05/19 05:24:31;;;;;;;;;;;;;;;16.17;51.73;100664.00;5040367;28;1154;-60
2023/05/19 05:26:59;;;;;;;;;;;;;;;16.79;52.97;100668.59;5057655;28;1308;-61
2023/05/19 05:29:25;;;;;;;;;;;;;;;16.52;53.44;100670.56;5057837;28;1359;-58
2023/05/19 05:31:51;;;;;;;;;;;;;;;16.34;51.85;100663.72;5057878;28;1946;-58
2023/05/19 05:34:18;;;;;;;;;;;;;;;16.24;50.62;100666.44;5065191;28;1113;-58
2023/05/19 05:36:44;;;;;;;;;;;;;;;16.16;49.96;100672.47;5057982;28;1109;-59
2023/05/19 05:39:09;;;;;;;;;;;;;;;16.67;51.85;100672.47;5057644;28;2379;-58
2023/05/19 05:41:36;;;;;;;;;;;;;;;16.27;51.40;100673.31;5079442;28;1118;-59
2023/05/19 05:44:08;;;;;;;;;;;;;;;16.24;50.17;100674.66;5062013;28;1146;-63
2023/05/19 05:46:34;;;;;;;;;;;;;;;16.38;50.27;100669.47;5062653;28;1206;-60
2023/05/19 05:49:00;;;;;;;;;;;;;;;16.74;51.85;100686.72;5061208;28;1102;-60
2023/05/19 05:51:25;;;;;;;;;;;;;;;16.30;51.12;100679.09;5061978;28;1115;-59
2023/05/19 05:53:52;;;;;;;;;;;;;;;16.24;50.22;100680.16;5079326;28;1050;-61
2023/05/19 05:56:18;;;;;;;;;;;;;;;16.19;49.34;100683.72;5061707;28;1106;-61
2023/05/19 05:58:49;;;;;;;;;;;;;;;16.14;48.80;100680.97;5063383;28;1906;-60
2023/05/19 06:01:15;;;;;;;;;;;;;;;16.69;50.44;100686.75;5072889;28;1015;-59
2023/05/19 06:03:43;;;;;;;;;;;;;;;16.29;50.05;100677.44;5057980;28;1355;-58
2023/05/19 06:06:09;;;;;;;;;;;;;;;16.31;49.33;100686.19;5055172;28;1130;-63
2023/05/19 06:08:35;;;;;;;;;;;;;;;16.15;48.85;100688.13;5061377;28;1091;-62
2023/05/19 06:11:10;;;;;;;;;;;;;;;15.99;48.56;100687.28;5047463;28;1258;-59
2023/05/19 06:13:40;;;;;;;;;;;;;;;16.02;48.25;100684.00;5061354;28;2143;-62
2023/05/19 06:16:08;;;;;;;;;;;;;;;16.74;49.56;100691.41;5061016;28;1481;-59
2023/05/19 06:18:43;;;;;;;;;;;;;;;16.33;49.75;100685.94;5061007;28;1906;-58
2023/05/19 06:21:09;;;;;;;;;;;;;;;16.14;49.18;100683.72;5079105;28;1097;-61
2023/05/19 06:23:35;;;;;;;;;;;;;;;16.11;48.63;100688.94;5068021;28;1147;-60
2023/05/19 06:26:00;;;;;;;;;;;;;;;16.74;50.08;100686.72;5060735;28;1174;-61
2023/05/19 06:28:26;;;;;;;;;;;;;;;16.35;50.01;100683.75;5073772;28;1266;-61
2023/05/19 06:30:52;;;;;;;;;;;;;;;16.23;48.97;100684.03;5079286;28;1138;-60
2023/05/19 06:33:35;;;;;;;;;;;;;;;16.50;49.67;100694.72;5060331;28;1241;-59
2023/05/19 06:36:00;;;;;;;;;;;;;;;16.57;50.09;100694.44;5070110;28;1380;-61
2023/05/19 06:38:26;;;;;;;;;;;;;;;16.18;49.91;100690.31;5049971;28;1909;-62
2023/05/19 06:40:52;;;;;;;;;;;;;;;16.23;48.84;100701.28;5070643;28;1190;-61
2023/05/19 06:43:17;;;;;;;;;;;;;;;17.31;49.97;100700.38;5085973;28;1149;-57
2023/05/19 06:45:52;;;;;;;;;;;;;;;16.64;50.30;100694.16;5080444;28;1295;-58
2023/05/19 06:48:17;;;;;;;;;;;;;;;16.41;49.55;100702.69;5080079;28;1041;-62
2023/05/19 06:50:44;;;;;;;;;;;;;;;16.32;49.17;100706.25;5080071;28;1133;-60
2023/05/19 06:53:11;;;;;;;;;;;;;;;16.49;49.14;100705.97;5052848;28;1142;-62
2023/05/19 06:55:37;;;;;;;;;;;;;;;16.74;50.45;100710.63;5079914;28;2185;-61
2023/05/19 06:58:03;;;;;;;;;;;;;;;16.46;49.66;100717.50;5097075;28;1990;-60
2023/05/19 07:00:28;;;;;;;;;;;;;;;16.34;49.11;100718.59;5059986;28;1265;-62
2023/05/19 07:02:54;;;;;;;;;;;;;;;16.20;48.54;100717.47;5060214;28;1119;-62
2023/05/19 07:05:20;;;;;;;;;;;;;;;16.17;48.40;100718.00;5080262;28;1121;-62
2023/05/19 07:07:50;;;;;;;;;;;;;;;16.12;47.88;100718.84;5079320;28;1268;-60
2023/05/19 07:10:20;;;;;;;;;;;;;;;16.14;47.52;100724.06;5059517;28;1209;-62
2023/05/19 07:12:46;;;;;;;;;;;;;;;16.10;47.30;100728.44;5059925;28;1341;-62
2023/05/19 07:15:14;;;;;;;;;;;;;;;16.08;47.57;100721.28;5059987;28;1162;-59
2023/05/19 07:17:40;;;;;;;;;;;;;;;16.74;49.24;100716.94;5059320;28;1211;-58
2023/05/19 07:20:08;;;;;;;;;;;;;;;16.29;49.35;100721.31;5059706;28;1905;-61
2023/05/19 07:22:35;;;;;;;;;;;;;;;16.20;48.98;100712.81;5059193;28;1581;-60
2023/05/19 07:25:01;;;;;;;;;;;;;;;16.22;48.12;100729.81;5059647;28;1113;-60
2023/05/19 07:27:28;;;;;;;;;;;;;;;16.19;47.64;100726.81;5061853;28;1278;-60
2023/05/19 07:29:53;;;;;;;;;;;;;;;16.12;47.88;100726.22;5097774;28;1019;-60
2023/05/19 07:32:19;;;;;;;;;;;;;;;16.02;47.51;100733.34;5081876;28;1219;-60
2023/05/19 07:34:44;;;;;;;;;;;;;;;16.02;47.24;100735.25;5086268;28;1062;-61
2023/05/19 07:37:10;;;;;;;;;;;;;;;15.99;47.28;100733.91;5081788;28;1131;-62
2023/05/19 07:39:35;;;;;;;;;;;;;;;17.22;49.11;100718.53;5085975;28;1961;-61
2023/05/19 07:42:01;;;;;;;;;;;;;;;16.98;50.24;100727.38;5095237;28;1039;-61
2023/05/19 07:44:26;;;;;;;;;;;;;;;16.54;50.26;100731.50;5086684;28;1143;-60
2023/05/19 07:46:52;;;;;;;;;;;;;;;16.38;49.37;100730.69;5096650;28;1179;-61
2023/05/19 07:49:18;;;;;;;;;;;;;;;16.36;48.44;100735.59;5097571;28;1094;-58
2023/05/19 07:51:43;;;;;;;;;;;;;;;16.21;48.13;100735.59;5080697;28;1169;-59
2023/05/19 07:54:09;;;;;;;;;;;;;;;16.12;48.14;100727.06;5076747;28;1113;-62
2023/05/19 07:56:35;;;;;;;;;;;;;;;16.07;47.79;100736.13;5079265;28;1114;-61
2023/05/19 07:59:00;;;;;;;;;;;;;;;17.08;49.01;100735.59;5087868;28;1902;-61
2023/05/19 08:01:27;;;;;;;;;;;;;;;16.53;49.73;100729.03;5076497;28;1055;-62
2023/05/19 08:03:52;;;;;;;;;;;;;;;16.31;49.19;100734.78;5076521;28;1035;-60
2023/05/19 08:06:18;;;;;;;;;;;;;;;16.35;48.51;100724.91;5077136;28;1008;-61
2023/05/19 08:08:43;;;;;;;;;;;;;;;16.24;48.35;100730.38;5076358;28;1090;-61
2023/05/19 08:11:08;;;;;;;;;;;;;;;16.16;48.26;100741.06;5088350;28;1114;-60
2023/05/19 08:13:34;;;;;;;;;;;;;;;16.15;48.00;100742.16;5073714;28;1080;-61
2023/05/19 08:15:59;;;;;;;;;;;;;;;16.99;49.01;100733.69;5096379;28;1165;-62
2023/05/19 08:18:25;;;;;;;;;;;;;;;16.72;49.67;100735.63;5096773;28;1955;-60
2023/05/19 08:20:50;;;;;;;;;;;;;;;16.43;49.14;100738.91;5095054;28;1113;-61
2023/05/19 08:23:16;;;;;;;;;;;;;;;16.35;48.91;100747.66;5076261;28;836;-62
2023/05/19 08:25:42;;;;;;;;;;;;;;;16.33;48.11;100743.56;5078128;28;1063;-64
2023/05/19 08:28:07;;;;;;;;;;;;;;;16.34;47.87;100751.53;5088498;28;1027;-58
2023/05/19 08:30:33;;;;;;;;;;;;;;;17.12;49.59;100738.59;5077169;28;1133;-58
2023/05/19 08:32:58;;;;;;;;;;;;;;;16.69;49.38;100760.03;5068670;28;1116;-59
2023/05/19 08:35:24;;;;;;;;;;;;;;;16.52;49.01;100761.16;5078806;28;908;-59
2023/05/19 08:37:50;;;;;;;;;;;;;;;16.54;48.32;100756.19;5075798;28;1023;-59
2023/05/19 08:40:16;;;;;;;;;;;;;;;16.35;47.99;100764.13;5076110;28;2008;-59
2023/05/19 08:42:42;;;;;;;;;;;;;;;16.36;47.75;100752.06;5058122;28;1174;-59
2023/05/19 08:45:07;;;;;;;;;;;;;;;16.30;47.50;100746.84;5076063;28;1174;-60
2023/05/19 08:47:33;;;;;;;;;;;;;;;16.70;48.05;100746.03;5086381;28;1071;-59
2023/05/19 08:50:02;;;;;;;;;;;;;;;16.68;49.25;100744.69;5058816;28;1121;-60
2023/05/19 08:52:44;;;;;;;;;;;;;;;16.50;48.77;100746.06;5075967;28;1221;-60
2023/05/19 08:55:15;;;;;;;;;;;;;;;16.38;48.54;100752.63;5058567;28;1063;-59
2023/05/19 08:57:41;;;;;;;;;;;;;;;16.25;48.41;100750.41;5076159;28;1042;-62
2023/05/19 09:00:12;;;;;;;;;;;;;;;16.26;47.94;100743.84;5064505;28;1914;-59
2023/05/19 09:02:38;;;;;;;;;;;;;;;17.10;49.00;100733.38;5067281;28;1024;-58
2023/05/19 09:05:04;;;;;;;;;;;;;;;16.67;49.08;100730.13;5075659;28;1142;-57
2023/05/19 09:07:30;;;;;;;;;;;;;;;16.53;48.90;100731.78;5058509;28;1042;-60
2023/05/19 09:09:55;;;;;;;;;;;;;;;16.45;48.40;100733.13;5075754;28;1483;-60
2023/05/19 09:12:21;;;;;;;;;;;;;;;16.37;48.53;100733.69;5080463;28;826;-58
2023/05/19 09:14:47;;;;;;;;;;;;;;;16.71;48.59;100728.47;5075094;28;1035;-59
2023/05/19 09:17:12;;;;;;;;;;;;;;;16.98;49.40;100735.59;5075263;28;1057;-60
2023/05/19 09:19:46;;;;;;;;;;;;;;;16.70;49.37;100732.31;5057718;28;1914;-58
2023/05/19 09:22:13;;;;;;;;;;;;;;;16.47;48.97;100735.63;5076143;28;1110;-61
2023/05/19 09:24:39;;;;;;;;;;;;;;;16.48;48.39;100740.00;5087109;28;1022;-60
2023/05/19 09:27:05;;;;;;;;;;;;;;;16.39;48.25;100726.81;5057881;28;1066;-58
2023/05/19 09:29:30;;;;;;;;;;;;;;;16.43;47.71;100732.59;5075379;28;1440;-58
2023/05/19 09:32:00;;;;;;;;;;;;;;;16.35;48.04;100728.47;5087900;28;1087;-60
2023/05/19 09:34:26;;;;;;;;;;;;;;;16.38;47.65;100733.41;5081956;28;1153;-59
2023/05/19 09:36:52;;;;;;;;;;;;;;;16.33;47.64;100732.59;5095747;28;857;-58
2023/05/19 09:39:18;;;;;;;;;;;;;;;16.21;47.52;100730.91;5065694;28;1914;-60
2023/05/19 09:41:43;;;;;;;;;;;;;;;16.28;47.53;100733.41;5057819;28;1236;-61
2023/05/19 09:44:11;;;;;;;;;;;;;;;16.21;47.51;100741.06;5055349;28;1253;-60
2023/05/19 09:46:37;;;;;;;;;;;;;;;16.13;47.43;100745.19;5066200;28;1617;-61
2023/05/19 09:49:08;;;;;;;;;;;;;;;16.26;47.00;100741.09;5082986;28;875;-58
2023/05/19 09:51:35;;;;;;;;;;;;;;;16.13;47.33;100753.41;5081975;28;991;-59
2023/05/19 09:54:01;;;;;;;;;;;;;;;16.04;47.23;100742.13;5095442;28;1014;-60
2023/05/19 09:56:31;;;;;;;;;;;;;;;16.95;48.55;100755.41;5094825;28;1103;-60
2023/05/19 09:58:57;;;;;;;;;;;;;;;16.56;48.95;100747.69;5081712;28;1909;-59
2023/05/19 10:01:22;;;;;;;;;;;;;;;16.40;48.67;100760.59;5094103;28;1070;-61
2023/05/19 10:03:48;;;;;;;;;;;;;;;16.36;48.09;100757.56;5065114;28;1043;-59
2023/05/19 10:06:14;;;;;;;;;;;;;;;16.23;47.86;100750.69;5082102;28;1087;-60
2023/05/19 10:08:41;;;;;;;;;;;;;;;16.62;48.48;100752.09;5087393;28;1134;-60
2023/05/19 10:11:06;;;;;;;;;;;;;;;16.81;49.31;100748.78;5062175;28;1174;-62
2023/05/19 10:13:32;;;;;;;;;;;;;;;16.54;48.89;100763.63;5074654;28;1131;-63
2023/05/19 10:15:57;;;;;;;;;;;;;;;16.47;48.52;100750.16;5095191;28;1003;-59
2023/05/19 10:18:23;;;;;;;;;;;;;;;16.46;47.90;100764.16;5091807;28;1909;-58
2023/05/19 10:20:48;;;;;;;;;;;;;;;16.28;47.96;100760.00;5067881;28;1295;-58
2023/05/19 10:23:14;;;;;;;;;;;;;;;16.26;47.47;100760.28;5064088;28;1114;-60
2023/05/19 10:25:39;;;;;;;;;;;;;;;17.06;48.95;100756.22;5085050;28;1232;-56
2023/05/19 10:28:10;;;;;;;;;;;;;;;16.57;49.08;100738.38;5072751;28;1034;-57
2023/05/19 10:30:38;;;;;;;;;;;;;;;16.42;48.61;100740.00;5068374;28;1110;-58
2023/05/19 10:33:06;;;;;;;;;;;;;;;16.42;48.32;100737.28;5041511;28;1321;-58
2023/05/19 10:35:50;;;;;;;;;;;;;;;16.36;48.06;100738.34;5044985;28;1344;-59
2023/05/19 10:38:51;;;;;;;;;;;;;;;16.37;47.69;100747.41;5058442;28;1913;-60
2023/05/19 10:41:23;;;;;;;;;;;;;;;16.22;47.64;100748.22;4958349;28;1302;-57
2023/05/19 10:43:53;;;;;;;;;;;;;;;17.23;48.56;100739.41;5041507;28;1271;-61
2023/05/19 10:46:22;;;;;;;;;;;;;;;16.62;49.35;100746.59;5058203;28;1254;-60
2023/05/19 10:48:47;;;;;;;;;;;;;;;16.49;48.71;100758.13;5047952;28;1202;-58
2023/05/19 10:51:13;;;;;;;;;;;;;;;16.46;48.01;100754.00;5058385;28;1270;-58
2023/05/19 10:53:48;;;;;;;;;;;;;;;16.35;47.78;100757.81;5058438;28;1218;-58
2023/05/19 10:56:31;;;;;;;;;;;;;;;17.04;49.18;100741.91;5058380;28;1223;-59
2023/05/19 10:58:57;;;;;;;;;;;;;;;16.58;49.01;100745.50;5073532;28;1913;-59
2023/05/19 11:01:23;;;;;;;;;;;;;;;16.51;48.76;100750.41;5096548;28;900;-59
2023/05/19 11:03:50;;;;;;;;;;;;;;;16.46;48.20;100747.69;5051920;28;1191;-57
2023/05/19 11:06:20;;;;;;;;;;;;;;;16.38;47.88;100762.75;5058565;28;1223;-61
2023/05/19 11:08:46;;;;;;;;;;;;;;;16.26;48.01;100749.31;5057875;28;1245;-61
2023/05/19 11:11:15;;;;;;;;;;;;;;;16.36;47.54;100754.81;5058281;28;1332;-61
2023/05/19 11:13:47;;;;;;;;;;;;;;;16.34;47.40;100748.78;5085186;28;972;-58
2023/05/19 11:16:13;;;;;;;;;;;;;;;16.21;47.52;100752.84;5094843;28;1066;-57
2023/05/19 11:18:39;;;;;;;;;;;;;;;16.29;46.94;100747.97;5077130;28;1973;-56
2023/05/19 11:21:04;;;;;;;;;;;;;;;16.23;47.00;100752.63;5077725;28;1034;-58
2023/05/19 11:23:32;;;;;;;;;;;;;;;16.18;46.93;100745.19;5087353;28;1146;-58
2023/05/19 11:25:57;;;;;;;;;;;;;;;16.16;46.88;100752.03;5097558;28;1030;-57
2023/05/19 11:28:24;;;;;;;;;;;;;;;16.56;47.41;100743.03;5069055;28;1159;-56
2023/05/19 11:30:50;;;;;;;;;;;;;;;16.67;48.70;100732.06;5080778;28;1042;-56
2023/05/19 11:33:18;;;;;;;;;;;;;;;16.53;48.30;100735.34;5087237;28;1174;-58
2023/05/19 11:35:45;;;;;;;;;;;;;;;16.36;48.11;100721.88;5063490;28;1063;-58
2023/05/19 11:38:10;;;;;;;;;;;;;;;16.32;48.12;100742.72;5076409;28;1989;-55
2023/05/19 11:40:36;;;;;;;;;;;;;;;16.31;47.56;100740.25;5095075;28;1201;-56
2023/05/19 11:43:02;;;;;;;;;;;;;;;16.32;47.34;100731.75;5068735;28;1135;-56
2023/05/19 11:45:30;;;;;;;;;;;;;;;16.18;47.40;100736.13;5060831;28;1024;-58
2023/05/19 11:47:56;;;;;;;;;;;;;;;17.22;48.47;100726.75;5076072;28;1205;-59
2023/05/19 11:50:21;;;;;;;;;;;;;;;16.63;49.13;100734.50;5075888;28;1023;-60
2023/05/19 11:52:47;;;;;;;;;;;;;;;16.46;48.80;100736.72;5076633;28;1067;-60
2023/05/19 11:55:16;;;;;;;;;;;;;;;16.49;48.16;100719.69;5093235;28;1146;-61
2023/05/19 11:57:49;;;;;;;;;;;;;;;16.40;47.87;100722.16;5072217;28;1138;-59
2023/05/19 12:00:15;;;;;;;;;;;;;;;16.40;47.75;100725.72;5093403;28;1913;-58
2023/05/19 12:02:40;;;;;;;;;;;;;;;16.22;47.86;100710.63;5085582;28;1114;-60
2023/05/19 12:05:06;;;;;;;;;;;;;;;16.31;47.16;100724.59;5081519;28;1130;-60
2023/05/19 12:07:31;;;;;;;;;;;;;;;16.33;46.88;100732.59;5096738;28;1457;-60
2023/05/19 12:09:57;;;;;;;;;;;;;;;16.18;47.33;100728.72;5070823;28;1287;-56
2023/05/19 12:12:22;;;;;;;;;;;;;;;17.02;48.82;100730.41;5059894;28;1922;-55
2023/05/19 12:14:49;;;;;;;;;;;;;;;16.50;49.27;100724.09;5088688;28;1117;-62
2023/05/19 12:17:15;;;;;;;;;;;;;;;16.47;48.51;100724.66;5096668;28;1101;-61
2023/05/19 12:19:43;;;;;;;;;;;;;;;16.40;48.19;100722.97;5084055;28;1911;-58
2023/05/19 12:22:09;;;;;;;;;;;;;;;17.27;48.69;100729.50;5050001;28;1407;-60
2023/05/19 12:24:34;;;;;;;;;;;;;;;16.75;49.32;100724.06;5044712;28;1234;-56
2023/05/19 12:27:15;;;;;;;;;;;;;;;16.63;48.85;100717.22;5090774;28;1225;-60
2023/05/19 12:29:40;;;;;;;;;;;;;;;16.52;48.20;100703.50;5096038;28;1197;-60
2023/05/19 12:32:06;;;;;;;;;;;;;;;16.47;48.09;100711.75;5070669;28;1173;-58
2023/05/19 12:34:34;;;;;;;;;;;;;;;16.48;47.86;100713.41;5056574;28;1258;-56
2023/05/19 12:37:01;;;;;;;;;;;;;;;16.42;47.41;100720.81;5064512;28;1226;-57
2023/05/19 12:39:26;;;;;;;;;;;;;;;16.44;47.22;100717.78;5058365;28;1933;-59
2023/05/19 12:41:52;;;;;;;;;;;;;;;16.32;47.51;100709.81;5038672;28;1297;-60
2023/05/19 12:44:17;;;;;;;;;;;;;;;16.33;47.53;100708.72;5055953;28;1266;-60
2023/05/19 12:46:43;;;;;;;;;;;;;;;16.37;47.34;100704.31;5074708;28;1382;-57
2023/05/19 12:49:09;;;;;;;;;;;;;;;16.25;47.24;100714.75;5076956;28;1470;-59